sensor_id;sensor_type;location;lat;lon;timestamp;pressure;altitude;pressure_sealevel;temperature;humidity
21109;BME280;10712;52.944;9.098;2024-01-10T00:01:59;103418.41;;;3.01;61.14
21109;BME280;10712;52.944;9.098;2024-01-10T00:04:25;103419.19;;;2.96;60.96
21109;BME280;10712;52.944;9.098;2024-01-10T00:06:51;103422.69;;;2.95;61.13
21109;BME280;10712;52.944;9.098;2024-01-10T00:09:17;103421.88;;;2.97;61.15
21109;BME280;10712;52.944;9.098;2024-01-10T00:11:43;103427.84;;;2.87;60.77
21109;BME280;10712;52.944;9.098;2024-01-10T00:14:08;103412.78;;;2.80;60.70
21109;BME280;10712;52.944;9.098;2024-01-10T00:16:35;103410.97;;;2.74;61.05
21109;BME280;10712;52.944;9.098;2024-01-10T00:19:01;103410.84;;;2.70;60.88
21109;BME280;10712;52.944;9.098;2024-01-10T00:21:27;103409.97;;;2.68;60.77
21109;BME280;10712;52.944;9.098;2024-01-10T00:23:52;103407.34;;;2.68;60.88
21109;BME280;10712;52.944;9.098;2024-01-10T00:26:18;103403.72;;;2.61;60.81
21109;BME280;10712;52.944;9.098;2024-01-10T00:28:44;103397.56;;;2.61;60.86
21109;BME280;10712;52.944;9.098;2024-01-10T00:31:12;103387.78;;;2.54;61.22
21109;BME280;10712;52.944;9.098;2024-01-10T00:33:39;103394.75;;;2.52;60.95
21109;BME280;10712;52.944;9.098;2024-01-10T00:36:06;103390.56;;;2.61;61.27
21109;BME280;10712;52.944;9.098;2024-01-10T00:38:32;103393.34;;;2.72;61.32
21109;BME280;10712;52.944;9.098;2024-01-10T00:40:58;103386.41;;;2.77;61.40
21109;BME280;10712;52.944;9.098;2024-01-10T00:43:25;103376.00;;;2.83;61.16
21109;BME280;10712;52.944;9.098;2024-01-10T00:45:51;103382.97;;;2.81;61.33
21109;BME280;10712;52.944;9.098;2024-01-10T00:48:16;103381.28;;;2.83;61.45
21109;BME280;10712;52.944;9.098;2024-01-10T00:50:46;103374.25;;;2.85;61.63
21109;BME280;10712;52.944;9.098;2024-01-10T00:53:12;103376.00;;;2.83;61.25
21109;BME280;10712;52.944;9.098;2024-01-10T00:55:37;103369.09;;;2.91;61.20
21109;BME280;10712;52.944;9.098;2024-01-10T00:58:03;103371.63;;;2.85;61.41
21109;BME280;10712;52.944;9.098;2024-01-10T01:00:29;103375.09;;;2.81;61.17
21109;BME280;10712;52.944;9.098;2024-01-10T01:02:55;103370.75;;;2.83;61.37
21109;BME280;10712;52.944;9.098;2024-01-10T01:05:21;103376.81;;;2.81;61.36
21109;BME280;10712;52.944;9.098;2024-01-10T01:07:47;103377.63;;;2.75;61.15
21109;BME280;10712;52.944;9.098;2024-01-10T01:10:13;103381.13;;;2.74;61.52
21109;BME280;10712;52.944;9.098;2024-01-10T01:12:38;103378.47;;;2.74;61.04
21109;BME280;10712;52.944;9.098;2024-01-10T01:15:06;103383.00;;;2.83;61.27
21109;BME280;10712;52.944;9.098;2024-01-10T01:17:31;103378.59;;;2.82;60.87
21109;BME280;10712;52.944;9.098;2024-01-10T01:19:57;103378.59;;;2.82;61.09
21109;BME280;10712;52.944;9.098;2024-01-10T01:22:23;103381.13;;;2.74;60.72
21109;BME280;10712;52.944;9.098;2024-01-10T01:24:49;103379.34;;;2.73;60.74
21109;BME280;10712;52.944;9.098;2024-01-10T01:27:15;103374.97;;;2.73;60.67
21109;BME280;10712;52.944;9.098;2024-01-10T01:29:41;103370.41;;;2.62;60.52
21109;BME280;10712;52.944;9.098;2024-01-10T01:32:06;103369.34;;;2.52;60.40
21109;BME280;10712;52.944;9.098;2024-01-10T01:34:32;103372.78;;;2.50;60.50
21109;BME280;10712;52.944;9.098;2024-01-10T01:36:58;103368.19;;;2.36;60.62
21109;BME280;10712;52.944;9.098;2024-01-10T01:39:24;103370.63;;;2.26;60.83
21109;BME280;10712;52.944;9.098;2024-01-10T01:41:50;103368.16;;;2.33;60.89
21109;BME280;10712;52.944;9.098;2024-01-10T01:44:15;103368.28;;;2.43;60.56
21109;BME280;10712;52.944;9.098;2024-01-10T01:46:41;103364.75;;;2.41;60.73
21109;BME280;10712;52.944;9.098;2024-01-10T01:49:07;103359.41;;;2.36;60.70
21109;BME280;10712;52.944;9.098;2024-01-10T01:51:35;103363.63;;;2.26;60.77
21109;BME280;10712;52.944;9.098;2024-01-10T01:54:07;103363.63;;;2.26;60.89
21109;BME280;10712;52.944;9.098;2024-01-10T01:56:44;103357.53;;;2.27;60.77
21109;BME280;10712;52.944;9.098;2024-01-10T01:59:11;103368.16;;;2.33;61.03
21109;BME280;10712;52.944;9.098;2024-01-10T02:01:37;103363.88;;;2.40;60.93
21109;BME280;10712;52.944;9.098;2024-01-10T02:04:03;103373.81;;;2.58;60.69
21109;BME280;10712;52.944;9.098;2024-01-10T02:06:29;103365.25;;;2.71;60.61
21109;BME280;10712;52.944;9.098;2024-01-10T02:08:57;103364.56;;;2.81;60.64
21109;BME280;10712;52.944;9.098;2024-01-10T02:11:25;103368.97;;;2.82;60.63
21109;BME280;10712;52.944;9.098;2024-01-10T02:13:52;103366.34;;;2.85;60.70
21109;BME280;10712;52.944;9.098;2024-01-10T02:16:22;103368.97;;;2.82;60.56
21109;BME280;10712;52.944;9.098;2024-01-10T02:18:49;103376.81;;;2.81;61.07
21109;BME280;10712;52.944;9.098;2024-01-10T02:21:16;103368.88;;;2.77;60.76
21109;BME280;10712;52.944;9.098;2024-01-10T02:23:42;103373.25;;;2.77;60.86
21109;BME280;10712;52.944;9.098;2024-01-10T02:26:08;103375.03;;;2.76;60.80
21109;BME280;10712;52.944;9.098;2024-01-10T02:28:33;103371.53;;;2.79;61.25
21109;BME280;10712;52.944;9.098;2024-01-10T02:31:00;103364.53;;;2.80;61.27
21109;BME280;10712;52.944;9.098;2024-01-10T02:33:27;103362.75;;;2.78;61.01
21109;BME280;10712;52.944;9.098;2024-01-10T02:35:53;103369.75;;;2.76;61.08
21109;BME280;10712;52.944;9.098;2024-01-10T02:38:19;103363.44;;;2.67;60.85
21109;BME280;10712;52.944;9.098;2024-01-10T02:40:46;103363.38;;;2.64;60.57
21109;BME280;10712;52.944;9.098;2024-01-10T02:43:12;103358.81;;;2.52;60.43
21109;BME280;10712;52.944;9.098;2024-01-10T02:45:38;103368.41;;;2.49;60.66
21109;BME280;10712;52.944;9.098;2024-01-10T02:48:04;103363.16;;;2.49;60.34
21109;BME280;10712;52.944;9.098;2024-01-10T02:50:30;103364.69;;;2.37;60.33
21109;BME280;10712;52.944;9.098;2024-01-10T02:52:56;103356.78;;;2.36;60.02
21109;BME280;10712;52.944;9.098;2024-01-10T02:55:21;103350.78;;;2.45;60.18
21109;BME280;10712;52.944;9.098;2024-01-10T02:57:47;103356.13;;;2.48;60.10
21109;BME280;10712;52.944;9.098;2024-01-10T03:00:13;103357.94;;;2.52;59.84
21109;BME280;10712;52.944;9.098;2024-01-10T03:02:39;103352.72;;;2.55;59.93
21109;BME280;10712;52.944;9.098;2024-01-10T03:05:05;103361.56;;;2.60;59.74
21109;BME280;10712;52.944;9.098;2024-01-10T03:07:31;103361.59;;;2.63;59.55
21109;BME280;10712;52.944;9.098;2024-01-10T03:09:56;103366.00;;;2.64;59.51
21109;BME280;10712;52.944;9.098;2024-01-10T03:12:22;103358.97;;;2.63;59.16
21109;BME280;10712;52.944;9.098;2024-01-10T03:14:48;103346.59;;;2.57;59.29
21109;BME280;10712;52.944;9.098;2024-01-10T03:17:14;103356.25;;;2.57;59.27
21109;BME280;10712;52.944;9.098;2024-01-10T03:19:39;103355.25;;;2.49;59.82
21109;BME280;10712;52.944;9.098;2024-01-10T03:22:10;103354.38;;;2.50;59.76
21109;BME280;10712;52.944;9.098;2024-01-10T03:24:37;103356.84;;;2.39;59.64
21109;BME280;10712;52.944;9.098;2024-01-10T03:27:04;103348.75;;;2.28;59.85
21109;BME280;10712;52.944;9.098;2024-01-10T03:29:30;103348.69;;;2.25;59.87
21109;BME280;10712;52.944;9.098;2024-01-10T03:31:56;103346.88;;;2.21;59.92
21109;BME280;10712;52.944;9.098;2024-01-10T03:34:21;103350.28;;;2.14;59.71
21109;BME280;10712;52.944;9.098;2024-01-10T03:36:47;103341.75;;;2.27;59.92
21109;BME280;10712;52.944;9.098;2024-01-10T03:39:13;103336.41;;;2.24;59.86
21109;BME280;10712;52.944;9.098;2024-01-10T03:41:39;103334.63;;;2.23;60.00
21109;BME280;10712;52.944;9.098;2024-01-10T03:44:05;103334.69;;;2.26;60.08
21109;BME280;10712;52.944;9.098;2024-01-10T03:46:31;103336.47;;;2.27;59.83
21109;BME280;10712;52.944;9.098;2024-01-10T03:48:56;103335.72;;;2.36;59.78
21109;BME280;10712;52.944;9.098;2024-01-10T03:51:22;103335.72;;;2.34;59.99
21109;BME280;10712;52.944;9.098;2024-01-10T03:53:49;103326.94;;;2.35;59.82
21109;BME280;10712;52.944;9.098;2024-01-10T03:56:15;103335.78;;;2.39;60.03
21109;BME280;10712;52.944;9.098;2024-01-10T03:58:41;103328.78;;;2.40;60.35
21109;BME280;10712;52.944;9.098;2024-01-10T04:01:08;103326.94;;;2.35;59.71
21109;BME280;10712;52.944;9.098;2024-01-10T04:03:35;103323.38;;;2.32;59.78
21109;BME280;10712;52.944;9.098;2024-01-10T04:06:02;103334.84;;;2.35;59.90
21109;BME280;10712;52.944;9.098;2024-01-10T04:08:28;103314.50;;;2.25;59.85
21109;BME280;10712;52.944;9.098;2024-01-10T04:10:54;103317.03;;;2.19;59.46
21109;BME280;10712;52.944;9.098;2024-01-10T04:13:20;103325.81;;;2.21;59.38
21109;BME280;10712;52.944;9.098;2024-01-10T04:15:45;103318.84;;;2.23;59.68
21109;BME280;10712;52.944;9.098;2024-01-10T04:18:12;103313.56;;;2.20;59.67
21109;BME280;10712;52.944;9.098;2024-01-10T04:20:37;103311.69;;;2.13;59.53
21109;BME280;10712;52.944;9.098;2024-01-10T04:23:03;103318.47;;;2.02;59.49
21109;BME280;10712;52.944;9.098;2024-01-10T04:25:29;103322.03;;;2.04;59.38
21109;BME280;10712;52.944;9.098;2024-01-10T04:27:56;103316.88;;;2.10;59.41
21109;BME280;10712;52.944;9.098;2024-01-10T04:30:23;103315.94;;;2.07;59.64
21109;BME280;10712;52.944;9.098;2024-01-10T04:32:49;103314.06;;;2.00;59.78
21109;BME280;10712;52.944;9.098;2024-01-10T04:35:15;103314.88;;;1.97;59.94
21109;BME280;10712;52.944;9.098;2024-01-10T04:37:40;103316.69;;;2.01;59.98
21109;BME280;10712;52.944;9.098;2024-01-10T04:40:07;103316.66;;;1.98;59.99
21109;BME280;10712;52.944;9.098;2024-01-10T04:42:33;103309.56;;;1.94;60.04
21109;BME280;10712;52.944;9.098;2024-01-10T04:44:58;103318.25;;;1.90;60.20
21109;BME280;10712;52.944;9.098;2024-01-10T04:47:24;103310.41;;;1.91;60.28
21109;BME280;10712;52.944;9.098;2024-01-10T04:49:50;103313.03;;;1.91;60.59
21109;BME280;10712;52.944;9.098;2024-01-10T04:52:16;103309.63;;;1.97;60.59
21109;BME280;10712;52.944;9.098;2024-01-10T04:54:42;103303.44;;;1.93;60.89
21109;BME280;10712;52.944;9.098;2024-01-10T04:57:07;103299.03;;;1.94;60.71
21109;BME280;10712;52.944;9.098;2024-01-10T04:59:33;103296.44;;;1.95;60.76
21109;BME280;10712;52.944;9.098;2024-01-10T05:01:59;103293.75;;;1.91;60.83
21109;BME280;10712;52.944;9.098;2024-01-10T05:04:25;103305.91;;;1.86;60.97
21109;BME280;10712;52.944;9.098;2024-01-10T05:06:51;103297.22;;;1.90;61.44
21109;BME280;10712;52.944;9.098;2024-01-10T05:09:17;103300.88;;;1.98;61.25
21109;BME280;10712;52.944;9.098;2024-01-10T05:11:44;103301.72;;;1.97;61.27
21109;BME280;10712;52.944;9.098;2024-01-10T05:14:12;103300.03;;;1.99;61.54
21109;BME280;10712;52.944;9.098;2024-01-10T05:16:38;103300.88;;;1.98;61.35
21109;BME280;10712;52.944;9.098;2024-01-10T05:19:04;103299.97;;;1.96;61.61
21109;BME280;10712;52.944;9.098;2024-01-10T05:21:32;103297.34;;;1.96;61.84
21109;BME280;10712;52.944;9.098;2024-01-10T05:23:58;103299.19;;;2.00;61.97
21109;BME280;10712;52.944;9.098;2024-01-10T05:26:24;103293.91;;;2.00;61.87
21109;BME280;10712;52.944;9.098;2024-01-10T05:28:49;103299.19;;;2.02;61.82
21109;BME280;10712;52.944;9.098;2024-01-10T05:31:16;103301.91;;;2.08;61.95
21109;BME280;10712;52.944;9.098;2024-01-10T05:33:41;103308.84;;;2.03;61.95
21109;BME280;10712;52.944;9.098;2024-01-10T05:36:09;103314.09;;;2.03;61.51
21109;BME280;10712;52.944;9.098;2024-01-10T05:38:38;103308.69;;;1.95;61.59
21109;BME280;10712;52.944;9.098;2024-01-10T05:41:05;103306.91;;;1.94;61.65
21109;BME280;10712;52.944;9.098;2024-01-10T05:43:31;103313.03;;;1.91;61.59
21109;BME280;10712;52.944;9.098;2024-01-10T05:45:57;103312.94;;;1.87;61.55
21109;BME280;10712;52.944;9.098;2024-01-10T05:48:24;103305.03;;;1.85;61.51
21109;BME280;10712;52.944;9.098;2024-01-10T05:50:50;103309.41;;;1.85;61.55
21109;BME280;10712;52.944;9.098;2024-01-10T05:53:17;103304.19;;;1.86;61.50
21109;BME280;10712;52.944;9.098;2024-01-10T05:55:44;103300.53;;;1.80;61.66
21109;BME280;10712;52.944;9.098;2024-01-10T05:58:11;103306.66;;;1.80;61.39
21109;BME280;10712;52.944;9.098;2024-01-10T06:00:37;103300.66;;;1.86;61.58
21109;BME280;10712;52.944;9.098;2024-01-10T06:03:04;103290.09;;;1.83;61.10
21109;BME280;10712;52.944;9.098;2024-01-10T06:05:29;103290.00;;;1.80;61.25
21109;BME280;10712;52.944;9.098;2024-01-10T06:07:57;103290.78;;;1.73;61.36
21109;BME280;10712;52.944;9.098;2024-01-10T06:10:23;103280.19;;;1.70;61.24
21109;BME280;10712;52.944;9.098;2024-01-10T06:12:49;103281.00;;;1.66;61.17
21109;BME280;10712;52.944;9.098;2024-01-10T06:15:15;103286.19;;;1.63;61.19
21109;BME280;10712;52.944;9.098;2024-01-10T06:17:41;103278.28;;;1.61;60.94
21109;BME280;10712;52.944;9.098;2024-01-10T06:20:07;103279.25;;;1.66;61.16
21109;BME280;10712;52.944;9.098;2024-01-10T06:22:34;103287.34;;;1.77;60.92
21109;BME280;10712;52.944;9.098;2024-01-10T06:25:00;103275.13;;;1.79;61.15
21109;BME280;10712;52.944;9.098;2024-01-10T06:27:26;103282.13;;;1.78;61.08
21109;BME280;10712;52.944;9.098;2024-01-10T06:29:52;103282.19;;;1.83;61.14
21109;BME280;10712;52.944;9.098;2024-01-10T06:32:17;103284.03;;;1.88;60.77
21109;BME280;10712;52.944;9.098;2024-01-10T06:34:43;103283.13;;;1.85;60.64
21109;BME280;10712;52.944;9.098;2024-01-10T06:37:10;103284.91;;;1.86;60.58
21109;BME280;10712;52.944;9.098;2024-01-10T06:39:36;103283.16;;;1.88;60.84
21109;BME280;10712;52.944;9.098;2024-01-10T06:42:02;103286.88;;;1.99;60.46
21109;BME280;10712;52.944;9.098;2024-01-10T06:44:31;103290.41;;;2.01;60.71
21109;BME280;10712;52.944;9.098;2024-01-10T06:46:57;103288.53;;;1.94;60.30
21109;BME280;10712;52.944;9.098;2024-01-10T06:49:23;103305.91;;;1.86;60.48
21109;BME280;10712;52.944;9.098;2024-01-10T06:51:49;103296.19;;;1.82;60.01
21109;BME280;10712;52.944;9.098;2024-01-10T06:54:15;103289.13;;;1.78;60.09
21109;BME280;10712;52.944;9.098;2024-01-10T06:56:41;103297.97;;;1.83;60.38
21109;BME280;10712;52.944;9.098;2024-01-10T06:59:07;103291.75;;;1.78;60.15
21109;BME280;10712;52.944;9.098;2024-01-10T07:01:32;103288.19;;;1.76;59.83
21109;BME280;10712;52.944;9.098;2024-01-10T07:03:58;103293.41;;;1.73;59.95
21109;BME280;10712;52.944;9.098;2024-01-10T07:06:24;103296.91;;;1.72;59.72
21109;BME280;10712;52.944;9.098;2024-01-10T07:08:50;103298.53;;;1.67;59.87
21109;BME280;10712;52.944;9.098;2024-01-10T07:11:17;103295.91;;;1.65;59.76
21109;BME280;10712;52.944;9.098;2024-01-10T07:13:45;103302.19;;;1.75;59.98
21109;BME280;10712;52.944;9.098;2024-01-10T07:16:12;103304.06;;;1.82;59.63
21109;BME280;10712;52.944;9.098;2024-01-10T07:18:41;103298.72;;;1.76;59.40
21109;BME280;10712;52.944;9.098;2024-01-10T07:21:08;103310.97;;;1.75;59.64
21109;BME280;10712;52.944;9.098;2024-01-10T07:23:34;103310.03;;;1.72;59.45
21109;BME280;10712;52.944;9.098;2024-01-10T07:26:01;103309.88;;;1.64;59.40
21109;BME280;10712;52.944;9.098;2024-01-10T07:28:27;103309.81;;;1.61;59.58
21109;BME280;10712;52.944;9.098;2024-01-10T07:30:52;103315.06;;;1.61;59.66
21109;BME280;10712;52.944;9.098;2024-01-10T07:33:18;103319.38;;;1.57;59.25
21109;BME280;10712;52.944;9.098;2024-01-10T07:35:44;103307.28;;;1.66;59.42
21109;BME280;10712;52.944;9.098;2024-01-10T07:38:10;103315.25;;;1.70;59.41
21109;BME280;10712;52.944;9.098;2024-01-10T07:40:36;103316.88;;;1.64;59.35
21109;BME280;10712;52.944;9.098;2024-01-10T07:43:02;103308.88;;;1.57;59.24
21109;BME280;10712;52.944;9.098;2024-01-10T07:45:28;103320.06;;;1.49;59.10
21109;BME280;10712;52.944;9.098;2024-01-10T07:47:54;103324.38;;;1.45;59.10
21109;BME280;10712;52.944;9.098;2024-01-10T07:50:20;103322.75;;;1.50;59.43
21109;BME280;10712;52.944;9.098;2024-01-10T07:52:46;103324.53;;;1.51;59.40
21109;BME280;10712;52.944;9.098;2024-01-10T07:55:12;103323.78;;;1.58;59.24
21109;BME280;10712;52.944;9.098;2024-01-10T07:57:38;103328.31;;;1.66;59.33
21109;BME280;10712;52.944;9.098;2024-01-10T08:00:06;103327.44;;;1.67;59.28
21109;BME280;10712;52.944;9.098;2024-01-10T08:02:38;103328.34;;;1.69;59.45
21109;BME280;10712;52.944;9.098;2024-01-10T08:05:06;103331.91;;;1.71;59.53
21109;BME280;10712;52.944;9.098;2024-01-10T08:07:36;103327.53;;;1.71;59.62
21109;BME280;10712;52.944;9.098;2024-01-10T08:10:10;103329.44;;;1.80;59.33
21109;BME280;10712;52.944;9.098;2024-01-10T08:12:39;103326.81;;;1.80;59.64
21109;BME280;10712;52.944;9.098;2024-01-10T08:15:07;103329.53;;;1.84;59.71
21109;BME280;10712;52.944;9.098;2024-01-10T08:17:33;103325.22;;;1.88;59.25
21109;BME280;10712;52.944;9.098;2024-01-10T08:20:00;103328.78;;;1.90;59.51
21109;BME280;10712;52.944;9.098;2024-01-10T08:22:26;103326.13;;;1.90;59.60
21109;BME280;10712;52.944;9.098;2024-01-10T08:24:52;103324.47;;;1.93;59.29
21109;BME280;10712;52.944;9.098;2024-01-10T08:27:18;103323.63;;;1.96;59.49
21109;BME280;10712;52.944;9.098;2024-01-10T08:29:44;103315.81;;;2.01;59.57
21109;BME280;10712;52.944;9.098;2024-01-10T08:32:11;103315.06;;;2.06;59.54
21109;BME280;10712;52.944;9.098;2024-01-10T08:34:36;103315.16;;;2.12;59.53
21109;BME280;10712;52.944;9.098;2024-01-10T08:37:02;103323.09;;;2.15;59.63
21109;BME280;10712;52.944;9.098;2024-01-10T08:39:29;103315.25;;;2.18;59.31
21109;BME280;10712;52.944;9.098;2024-01-10T08:41:57;103323.28;;;2.26;59.51
21109;BME280;10712;52.944;9.098;2024-01-10T08:44:23;103311.06;;;2.29;59.25
21109;BME280;10712;52.944;9.098;2024-01-10T08:46:48;103314.75;;;2.39;59.23
21109;BME280;10712;52.944;9.098;2024-01-10T08:49:17;103320.03;;;2.42;59.32
21109;BME280;10712;52.944;9.098;2024-01-10T08:51:43;103320.16;;;2.50;59.37
21109;BME280;10712;52.944;9.098;2024-01-10T08:54:10;103314.13;;;2.54;59.20
21109;BME280;10712;52.944;9.098;2024-01-10T08:56:38;103324.63;;;2.54;58.93
21109;BME280;10712;52.944;9.098;2024-01-10T08:59:04;103317.75;;;2.62;59.13
21109;BME280;10712;52.944;9.098;2024-01-10T09:01:30;103319.56;;;2.66;58.96
21109;BME280;10712;52.944;9.098;2024-01-10T09:03:56;103314.38;;;2.72;58.71
21109;BME280;10712;52.944;9.098;2024-01-10T09:06:22;103321.50;;;2.79;58.74
21109;BME280;10712;52.944;9.098;2024-01-10T09:08:48;103317.19;;;2.83;58.47
21109;BME280;10712;52.944;9.098;2024-01-10T09:11:13;103325.09;;;2.84;58.31
21109;BME280;10712;52.944;9.098;2024-01-10T09:13:39;103313.78;;;2.91;58.39
21109;BME280;10712;52.944;9.098;2024-01-10T09:16:06;103310.25;;;2.88;58.37
21109;BME280;10712;52.944;9.098;2024-01-10T09:18:32;103311.16;;;2.91;58.04
21109;BME280;10712;52.944;9.098;2024-01-10T09:20:58;103311.16;;;2.91;57.83
21109;BME280;10712;52.944;9.098;2024-01-10T09:23:23;103307.59;;;2.86;58.03
21109;BME280;10712;52.944;9.098;2024-01-10T09:25:49;103309.44;;;2.93;58.04
21109;BME280;10712;52.944;9.098;2024-01-10T09:28:15;103310.38;;;2.97;57.92
21109;BME280;10712;52.944;9.098;2024-01-10T09:30:41;103310.47;;;3.03;57.76
21109;BME280;10712;52.944;9.098;2024-01-10T09:33:07;103307.81;;;3.04;57.41
21109;BME280;10712;52.944;9.098;2024-01-10T09:35:32;103302.69;;;3.10;57.39
21109;BME280;10712;52.944;9.098;2024-01-10T09:37:58;103309.69;;;3.11;57.48
21109;BME280;10712;52.944;9.098;2024-01-10T09:40:26;103301.88;;;3.19;57.72
21109;BME280;10712;52.944;9.098;2024-01-10T09:42:55;103297.41;;;3.12;57.45
21109;BME280;10712;52.944;9.098;2024-01-10T09:45:21;103305.38;;;3.16;57.38
21109;BME280;10712;52.944;9.098;2024-01-10T09:47:54;103301.97;;;3.24;57.69
21109;BME280;10712;52.944;9.098;2024-01-10T09:50:22;103304.69;;;3.33;57.20
21109;BME280;10712;52.944;9.098;2024-01-10T09:52:53;103304.69;;;3.30;56.65
21109;BME280;10712;52.944;9.098;2024-01-10T09:55:22;103304.75;;;3.36;56.90
21109;BME280;10712;52.944;9.098;2024-01-10T09:57:49;103306.53;;;3.40;56.84
21109;BME280;10712;52.944;9.098;2024-01-10T10:00:16;103303.97;;;3.46;56.76
21109;BME280;10712;52.944;9.098;2024-01-10T10:02:43;103303.19;;;3.51;56.70
21109;BME280;10712;52.944;9.098;2024-01-10T10:05:16;103303.19;;;3.53;56.58
21109;BME280;10712;52.944;9.098;2024-01-10T10:07:50;103295.28;;;3.53;56.44
21109;BME280;10712;52.944;9.098;2024-01-10T10:10:18;103293.59;;;3.58;56.62
21109;BME280;10712;52.944;9.098;2024-01-10T10:12:52;103293.72;;;3.69;56.48
21109;BME280;10712;52.944;9.098;2024-01-10T10:15:23;103287.59;;;3.74;56.29
21109;BME280;10712;52.944;9.098;2024-01-10T10:17:50;103287.66;;;3.80;56.47
21109;BME280;10712;52.944;9.098;2024-01-10T10:20:30;103285.94;;;3.79;56.29
21109;BME280;10712;52.944;9.098;2024-01-10T10:23:05;103284.22;;;3.87;56.19
21109;BME280;10712;52.944;9.098;2024-01-10T10:25:36;103280.72;;;3.88;56.36
21109;BME280;10712;52.944;9.098;2024-01-10T10:28:04;103277.28;;;3.92;56.22
21109;BME280;10712;52.944;9.098;2024-01-10T10:30:34;103279.06;;;3.96;56.25
21109;BME280;10712;52.944;9.098;2024-01-10T10:33:01;103277.34;;;4.02;56.02
21109;BME280;10712;52.944;9.098;2024-01-10T10:35:27;103265.06;;;4.04;56.00
21109;BME280;10712;52.944;9.098;2024-01-10T10:37:53;103273.00;;;4.05;56.05
21109;BME280;10712;52.944;9.098;2024-01-10T10:40:21;103274.84;;;4.14;56.02
21109;BME280;10712;52.944;9.098;2024-01-10T10:42:56;103266.06;;;4.15;55.79
21109;BME280;10712;52.944;9.098;2024-01-10T10:45:24;103262.50;;;4.13;55.50
21109;BME280;10712;52.944;9.098;2024-01-10T10:48:01;103268.75;;;4.21;55.51
21109;BME280;10712;52.944;9.098;2024-01-10T10:50:33;103265.25;;;4.25;55.24
21109;BME280;10712;52.944;9.098;2024-01-10T10:53:03;103266.16;;;4.28;55.33
21109;BME280;10712;52.944;9.098;2024-01-10T10:55:29;103256.47;;;4.29;55.41
21109;BME280;10712;52.944;9.098;2024-01-10T10:57:58;103254.78;;;4.34;55.37
21109;BME280;10712;52.944;9.098;2024-01-10T11:00:24;103257.38;;;4.31;55.56
21109;BME280;10712;52.944;9.098;2024-01-10T11:02:56;103260.13;;;4.46;55.51
21109;BME280;10712;52.944;9.098;2024-01-10T11:05:26;103260.16;;;4.52;55.36
21109;BME280;10712;52.944;9.098;2024-01-10T11:07:51;103254.91;;;4.55;55.21
21109;BME280;10712;52.944;9.098;2024-01-10T11:10:27;103253.19;;;4.60;54.92
21109;BME280;10712;52.944;9.098;2024-01-10T11:21:56;103244.47;;;4.73;54.99
21109;BME280;10712;52.944;9.098;2024-01-10T11:24:18;103235.66;;;4.74;54.79
21109;BME280;10712;52.944;9.098;2024-01-10T11:26:45;103239.22;;;4.80;54.62
21109;BME280;10712;52.944;9.098;2024-01-10T11:29:11;103233.97;;;4.83;54.74
21109;BME280;10712;52.944;9.098;2024-01-10T11:31:39;103233.09;;;4.88;54.68
21109;BME280;10712;52.944;9.098;2024-01-10T11:34:04;103232.22;;;4.92;54.46
21109;BME280;10712;52.944;9.098;2024-01-10T11:36:30;103230.47;;;4.90;53.93
21109;BME280;10712;52.944;9.098;2024-01-10T11:38:59;103227.00;;;4.97;53.93
21109;BME280;10712;52.944;9.098;2024-01-10T11:41:30;103227.88;;;5.05;54.20
21109;BME280;10712;52.944;9.098;2024-01-10T11:46:58;103227.94;;;5.11;53.78
21109;BME280;10712;52.944;9.098;2024-01-10T11:49:25;103233.22;;;5.14;53.68
21109;BME280;10712;52.944;9.098;2024-01-10T11:52:00;103238.50;;;5.14;53.36
21109;BME280;10712;52.944;9.098;2024-01-10T11:54:36;103227.09;;;5.18;53.45
21109;BME280;10712;52.944;9.098;2024-01-10T11:57:02;103227.94;;;5.20;53.54
21109;BME280;10712;52.944;9.098;2024-01-10T11:59:29;103228.88;;;5.25;53.51
21109;BME280;10712;52.944;9.098;2024-01-10T12:01:56;103221.81;;;5.33;53.46
21109;BME280;10712;52.944;9.098;2024-01-10T12:04:23;103224.50;;;5.32;53.00
21109;BME280;10712;52.944;9.098;2024-01-10T12:06:48;103217.44;;;5.40;53.01
21109;BME280;10712;52.944;9.098;2024-01-10T12:09:15;103214.81;;;5.44;53.17
21109;BME280;10712;52.944;9.098;2024-01-10T12:11:42;103214.81;;;5.47;53.06
21109;BME280;10712;52.944;9.098;2024-01-10T12:14:10;103207.78;;;5.49;53.22
21109;BME280;10712;52.944;9.098;2024-01-10T12:16:37;103207.78;;;5.62;53.17
21109;BME280;10712;52.944;9.098;2024-01-10T12:19:03;103208.69;;;5.71;53.10
21109;BME280;10712;52.944;9.098;2024-01-10T12:21:28;103206.06;;;5.79;52.75
21109;BME280;10712;52.944;9.098;2024-01-10T12:23:55;103211.38;;;5.88;52.69
21109;BME280;10712;52.944;9.098;2024-01-10T12:26:21;103211.38;;;5.97;52.21
21109;BME280;10712;52.944;9.098;2024-01-10T12:28:58;103201.66;;;5.85;51.40
21109;BME280;10712;52.944;9.098;2024-01-10T12:31:27;103212.28;;;5.95;51.47
21109;BME280;10712;52.944;9.098;2024-01-10T12:33:58;103199.03;;;5.90;51.28
21109;BME280;10712;52.944;9.098;2024-01-10T12:36:25;103203.44;;;5.96;51.32
21109;BME280;10712;52.944;9.098;2024-01-10T12:38:51;103197.28;;;5.98;51.27
21109;BME280;10712;52.944;9.098;2024-01-10T12:41:18;103192.84;;;6.02;51.94
21109;BME280;10712;52.944;9.098;2024-01-10T12:43:54;103190.22;;;6.03;51.82
21109;BME280;10712;52.944;9.098;2024-01-10T12:46:23;103193.75;;;6.14;51.77
21109;BME280;10712;52.944;9.098;2024-01-10T12:49:06;103199.03;;;6.20;51.80
21109;BME280;10712;52.944;9.098;2024-01-10T12:51:34;103189.34;;;6.21;51.93
21109;BME280;10712;52.944;9.098;2024-01-10T12:54:02;103182.25;;;6.24;51.93
21109;BME280;10712;52.944;9.098;2024-01-10T12:56:30;103179.63;;;6.24;51.81
21109;BME280;10712;52.944;9.098;2024-01-10T12:58:57;103170.81;;;6.28;51.43
21109;BME280;10712;52.944;9.098;2024-01-10T13:01:24;103176.03;;;6.44;51.56
21109;BME280;10712;52.944;9.098;2024-01-10T13:03:50;103168.09;;;6.45;50.79
21109;BME280;10712;52.944;9.098;2024-01-10T13:06:17;103170.75;;;6.50;50.60
21109;BME280;10712;52.944;9.098;2024-01-10T13:08:48;103178.69;;;6.51;50.53
21109;BME280;10712;52.944;9.098;2024-01-10T13:11:14;103182.22;;;6.55;50.49